createdAt,value
2022-08-05T00:00:20.311Z,62.98
2022-08-05T00:02:51.089Z,66.88
2022-08-05T00:06:01.782Z,69.16
2022-08-05T00:08:09.078Z,69.88
2022-08-05T00:10:55.955Z,70.68
2022-08-05T00:13:38.260Z,70.14
2022-08-05T00:16:12.855Z,69.32
2022-08-05T00:18:44.259Z,68.85
2022-08-05T00:21:14.454Z,68.96
2022-08-05T00:23:45.938Z,69.16
2022-08-05T00:26:16.461Z,69.08
2022-08-05T00:28:45.764Z,69.55
2022-08-05T00:31:13.594Z,69.69
2022-08-05T00:34:54.614Z,69.62
2022-08-05T00:37:10.632Z,70.27
2022-08-05T00:39:13.708Z,70.11
2022-08-05T00:41:52.028Z,69.42
2022-08-05T00:44:30.326Z,69.39
2022-08-05T00:47:03.660Z,69.44
2022-08-05T00:49:44.430Z,69.90
2022-08-05T00:52:18.354Z,70.11
2022-08-05T00:54:55.080Z,70.63
2022-08-05T00:57:25.262Z,70.44
2022-08-05T00:59:58.200Z,70.50
2022-08-05T01:02:24.839Z,70.52
2022-08-05T01:04:51.389Z,70.92
2022-08-05T01:07:18.143Z,71.35
2022-08-05T01:09:45.463Z,71.35
2022-08-05T01:12:25.042Z,71.51
2022-08-05T01:15:05.322Z,71.39
2022-08-05T01:17:53.656Z,72.36
2022-08-05T01:20:54.861Z,72.08
2022-08-05T01:24:22.235Z,72.58
2022-08-05T01:27:19.259Z,72.99
2022-08-05T01:29:52.150Z,72.37
2022-08-05T01:32:27.672Z,72.24
2022-08-05T01:35:10.724Z,72.81
2022-08-05T01:37:45.458Z,72.19
2022-08-05T01:40:17.964Z,72.04
2022-08-05T01:42:48.954Z,72.22
2022-08-05T01:45:18.166Z,72.41
2022-08-05T01:47:49.675Z,72.29
2022-08-05T01:50:30.947Z,72.08
2022-08-05T01:53:04.263Z,71.84
2022-08-05T01:55:36.237Z,71.79
2022-08-05T01:58:18.882Z,71.99
2022-08-05T02:00:57.258Z,72.45
2022-08-05T02:03:34.254Z,72.48
2022-08-05T02:06:33.603Z,72.78
2022-08-05T02:08:58.193Z,73.38
2022-08-05T02:11:33.259Z,73.52
2022-08-05T02:14:13.051Z,73.68
2022-08-05T02:16:52.865Z,73.45
2022-08-05T02:19:28.580Z,73.41
2022-08-05T02:22:29.963Z,73.30
2022-08-05T02:25:04.962Z,73.03
2022-08-05T02:27:58.498Z,72.91
2022-08-05T02:30:32.370Z,72.93
2022-08-05T02:33:04.746Z,73.58
2022-08-05T02:35:38.090Z,73.67
2022-08-05T02:38:19.281Z,73.70
2022-08-05T02:40:46.900Z,73.44
2022-08-05T02:43:18.075Z,73.21
2022-08-05T02:45:52.848Z,73.54
2022-08-05T02:48:29.582Z,73.41
2022-08-05T02:51:02.574Z,73.51
2022-08-05T02:53:39.468Z,73.41
2022-08-05T02:56:15.926Z,73.54
2022-08-05T02:58:51.232Z,73.60
2022-08-05T03:01:25.170Z,73.63
2022-08-05T03:04:02.968Z,73.59
2022-08-05T03:06:56.096Z,74.04
2022-08-05T03:09:36.481Z,74.52
2022-08-05T03:12:06.246Z,74.21
2022-08-05T03:14:34.994Z,73.94
2022-08-05T03:17:12.519Z,73.70
2022-08-05T03:22:16.646Z,73.20
2022-08-05T03:24:50.667Z,73.52
2022-08-05T03:27:19.657Z,73.52
2022-08-05T03:30:07.661Z,73.44
2022-08-05T03:32:34.736Z,73.37
2022-08-05T03:35:04.461Z,73.44
2022-08-05T03:37:31.321Z,73.45
2022-08-05T03:40:12.043Z,73.38
2022-08-05T03:42:41.796Z,73.72
2022-08-05T03:45:22.475Z,74.29
2022-08-05T03:47:51.241Z,74.22
2022-08-05T03:50:18.642Z,73.93
2022-08-05T03:55:53.091Z,74.08
2022-08-05T03:56:10.081Z,74.29
2022-08-05T03:58:48.567Z,74.04
2022-08-05T04:01:21.837Z,74.32
2022-08-05T04:04:08.883Z,74.38
2022-08-05T04:06:38.057Z,74.67
2022-08-05T04:09:08.395Z,75.14
2022-08-05T04:11:47.631Z,75.50
2022-08-05T04:14:19.524Z,75.28
2022-08-05T04:17:02.088Z,75.14
2022-08-05T04:19:29.910Z,74.87
2022-08-05T04:22:08.589Z,74.91
2022-08-05T04:24:52.682Z,75.04
2022-08-05T04:27:41.673Z,75.33
2022-08-05T04:30:09.262Z,75.04
2022-08-05T04:32:36.726Z,74.75
2022-08-05T04:35:05.898Z,74.22
2022-08-05T04:38:01.333Z,74.05
2022-08-05T04:40:19.836Z,74.24
2022-08-05T04:42:46.499Z,74.44
2022-08-05T04:45:14.152Z,74.88
2022-08-05T04:47:49.630Z,75.45
2022-08-05T04:50:37.368Z,75.73
2022-08-05T04:53:04.139Z,75.60
2022-08-05T04:55:49.821Z,75.85
2022-08-05T04:58:21.645Z,76.23
2022-08-05T05:00:50.797Z,76.29
2022-08-05T05:03:20.371Z,75.72
2022-08-05T05:06:40.506Z,75.61
2022-08-05T05:08:33.580Z,75.61
2022-08-05T05:11:00.071Z,75.33
2022-08-05T05:13:26.728Z,75.09
2022-08-05T05:16:06.047Z,74.79
2022-08-05T05:18:34.310Z,74.89
2022-08-05T05:21:03.445Z,75.05
2022-08-05T05:24:03.009Z,74.94
2022-08-05T05:26:17.019Z,76.30
2022-08-05T05:28:45.130Z,75.30
2022-08-05T05:31:12.068Z,76.09
2022-08-05T05:33:58.758Z,76.27
2022-08-05T05:36:25.103Z,75.95
2022-08-05T05:38:55.501Z,75.66
2022-08-05T05:41:22.129Z,75.20
2022-08-05T05:43:57.685Z,74.94
2022-08-05T05:46:26.439Z,74.89
2022-08-05T05:48:53.008Z,74.73
2022-08-05T05:51:25.685Z,74.65
2022-08-05T05:53:58.948Z,74.41
2022-08-05T05:56:32.182Z,74.23
2022-08-05T05:59:05.202Z,74.39
2022-08-05T06:01:37.050Z,74.55
2022-08-05T06:04:12.526Z,74.85
2022-08-05T06:06:42.592Z,74.99
2022-08-05T06:09:09.499Z,75.10
2022-08-05T06:12:01.852Z,75.17
2022-08-05T06:14:34.614Z,75.22
2022-08-05T06:17:21.974Z,75.03
2022-08-05T06:19:56.742Z,75.04
2022-08-05T06:22:29.805Z,74.86
2022-08-05T06:24:56.636Z,74.83
2022-08-05T06:28:10.756Z,74.77
2022-08-05T06:30:17.758Z,74.79
2022-08-05T06:32:47.782Z,74.84
2022-08-05T06:35:15.531Z,74.64
2022-08-05T06:37:56.407Z,74.42
2022-08-05T06:40:27.742Z,74.24
2022-08-05T06:42:54.792Z,74.08
2022-08-05T06:46:03.346Z,74.10
2022-08-05T06:48:44.247Z,74.12
2022-08-05T06:50:56.282Z,74.34
2022-08-05T06:53:28.572Z,74.20
2022-08-05T06:55:59.551Z,73.94
2022-08-05T06:58:34.950Z,73.83
2022-08-05T07:01:06.164Z,73.84
2022-08-05T07:03:34.456Z,73.54
2022-08-05T07:06:06.256Z,73.77
2022-08-05T07:08:47.882Z,73.87
2022-08-05T07:11:22.115Z,74.09
2022-08-05T07:14:20.735Z,74.16
2022-08-05T07:18:01.974Z,73.96
2022-08-05T07:22:39.705Z,73.84
2022-08-05T07:25:23.980Z,73.90
2022-08-05T07:28:02.278Z,73.72
2022-08-05T07:30:34.468Z,74.39
2022-08-05T07:33:13.299Z,73.66
2022-08-05T07:36:03.139Z,73.88
2022-08-05T07:38:34.219Z,73.81
2022-08-05T07:42:09.396Z,73.58
2022-08-05T07:43:57.095Z,73.61
2022-08-05T07:46:26.584Z,73.52
2022-08-05T07:49:02.409Z,73.47
2022-08-05T07:51:40.904Z,73.54
2022-08-05T07:54:21.924Z,73.42
2022-08-05T07:57:01.414Z,73.86
2022-08-05T07:59:39.833Z,74.23
2022-08-05T08:02:16.660Z,74.05
2022-08-05T08:04:48.178Z,74.17
2022-08-05T08:07:16.388Z,73.93
2022-08-05T08:09:45.749Z,73.96
2022-08-05T08:12:33.508Z,73.61
2022-08-05T08:15:03.714Z,73.19
2022-08-05T08:17:32.762Z,73.13
2022-08-05T08:20:42.864Z,73.25
2022-08-05T08:22:59.277Z,73.00
2022-08-05T08:25:59.145Z,72.85
2022-08-05T08:28:18.296Z,73.81
2022-08-05T08:30:48.011Z,72.50
2022-08-05T08:33:17.608Z,72.08
2022-08-05T08:35:52.498Z,71.81
2022-08-05T08:38:35.499Z,72.32
2022-08-05T08:41:08.582Z,72.00
2022-08-05T08:45:18.771Z,71.94
2022-08-05T08:46:27.897Z,72.08
2022-08-05T08:49:07.824Z,72.19
2022-08-05T08:52:04.150Z,72.00
2022-08-05T08:54:36.314Z,71.77
2022-08-05T08:57:11.216Z,71.54
2022-08-05T08:59:39.061Z,71.47
2022-08-05T09:02:09.051Z,71.53
2022-08-05T09:04:58.634Z,71.66
2022-08-05T09:07:29.096Z,71.86
2022-08-05T09:10:06.947Z,72.51
2022-08-05T09:12:34.552Z,72.29
2022-08-05T09:15:06.400Z,72.23
2022-08-05T09:17:42.751Z,72.20
2022-08-05T09:20:36.778Z,71.69
2022-08-05T09:23:19.176Z,71.57
2022-08-05T09:26:01.756Z,71.24
2022-08-05T09:28:33.445Z,71.33
2022-08-05T09:31:43.938Z,71.35
2022-08-05T09:34:02.473Z,71.65
2022-08-05T09:36:55.083Z,70.83
2022-08-05T09:39:39.221Z,70.85
2022-08-05T09:42:13.468Z,69.99
2022-08-05T09:44:50.514Z,68.81
2022-08-05T09:47:20.824Z,67.69
2022-08-05T09:50:01.695Z,67.34
2022-08-05T09:52:31.938Z,67.90
2022-08-05T09:55:56.621Z,66.23
2022-08-05T09:57:58.734Z,66.24
2022-08-05T10:00:29.636Z,66.91
2022-08-05T10:02:58.723Z,66.59
2022-08-05T10:05:28.466Z,66.18
2022-08-05T10:08:37.008Z,65.22
2022-08-05T10:10:54.070Z,65.93
2022-08-05T10:13:45.714Z,65.31
2022-08-05T10:16:37.774Z,65.88
2022-08-05T10:19:10.143Z,66.50
2022-08-05T10:21:39.919Z,65.62
2022-08-05T10:24:13.372Z,65.78
2022-08-05T10:26:51.207Z,65.78
2022-08-05T10:29:24.038Z,65.53
2022-08-05T10:32:52.565Z,64.79
2022-08-05T10:35:00.832Z,64.57
2022-08-05T10:37:40.252Z,64.01
2022-08-05T10:40:49.143Z,63.37
2022-08-05T10:43:37.023Z,63.84
2022-08-05T10:46:12.235Z,63.94
2022-08-05T10:48:57.449Z,62.89
2022-08-05T10:51:28.969Z,63.09
2022-08-05T10:54:05.770Z,63.56
2022-08-05T10:56:52.875Z,63.63
2022-08-05T11:00:04.398Z,62.96
2022-08-05T11:02:34.996Z,63.18
2022-08-05T11:05:06.148Z,62.09
2022-08-05T11:08:03.343Z,62.27
2022-08-05T11:10:27.689Z,62.27
2022-08-05T11:12:58.640Z,62.35
2022-08-05T11:16:00.874Z,62.28
2022-08-05T11:18:34.027Z,61.58
2022-08-05T11:21:11.802Z,61.15
2022-08-05T11:24:05.537Z,60.98
2022-08-05T11:26:32.987Z,61.56
2022-08-05T11:29:12.145Z,61.92
2022-08-05T11:31:57.835Z,60.87
2022-08-05T11:34:51.445Z,62.11
2022-08-05T11:38:37.398Z,61.65
2022-08-05T11:41:15.486Z,61.71
2022-08-05T11:44:05.673Z,63.14
2022-08-05T11:46:58.119Z,62.52
2022-08-05T11:49:28.233Z,62.76
2022-08-05T11:51:57.509Z,63.56
2022-08-05T11:54:34.505Z,64.23
2022-08-05T11:57:08.751Z,64.28
2022-08-05T11:59:51.967Z,64.21
2022-08-05T12:02:30.218Z,63.50
2022-08-05T12:05:07.617Z,63.62
2022-08-05T12:08:03.360Z,63.40
2022-08-05T12:10:38.374Z,64.06
2022-08-05T12:13:16.541Z,63.59
2022-08-05T12:15:49.634Z,63.28
2022-08-05T12:18:33.133Z,62.60
2022-08-05T12:21:19.527Z,62.80
2022-08-05T12:24:06.951Z,63.27
2022-08-05T12:26:44.127Z,63.87
2022-08-05T12:29:26.618Z,63.87
2022-08-05T12:32:01.950Z,63.11
2022-08-05T12:34:36.934Z,63.15
2022-08-05T12:39:51.251Z,62.60
2022-08-05T12:42:20.781Z,61.61
2022-08-05T12:44:48.168Z,62.04
2022-08-05T12:47:30.409Z,61.09
2022-08-05T12:50:03.112Z,60.47
2022-08-05T12:52:42.266Z,59.61
2022-08-05T12:55:23.586Z,60.27
2022-08-05T12:58:50.750Z,60.79
2022-08-05T13:02:02.921Z,61.42
2022-08-05T13:03:32.386Z,61.55
2022-08-05T13:06:01.234Z,60.79
2022-08-05T13:08:32.421Z,58.39
2022-08-05T13:11:04.074Z,58.74
2022-08-05T13:14:06.133Z,58.06
2022-08-05T13:16:20.194Z,58.14
2022-08-05T13:18:57.709Z,58.43
2022-08-05T13:21:27.694Z,58.39
2022-08-05T13:23:55.534Z,58.69
2022-08-05T13:26:29.821Z,58.02
2022-08-05T13:28:57.269Z,57.73
2022-08-05T13:31:33.835Z,57.46
2022-08-05T13:34:23.365Z,56.63
2022-08-05T13:36:52.479Z,55.61
2022-08-05T13:40:13.196Z,55.74
2022-08-05T13:42:05.918Z,55.77
2022-08-05T13:44:32.544Z,55.50
2022-08-05T13:47:02.568Z,55.08
2022-08-05T13:49:35.688Z,53.60
2022-08-05T13:52:13.297Z,54.49
2022-08-05T13:54:40.194Z,54.44
2022-08-05T13:57:09.018Z,53.47
2022-08-05T13:59:38.302Z,52.64
2022-08-05T14:02:26.495Z,52.08
2022-08-05T14:05:11.898Z,52.13
2022-08-05T14:07:59.919Z,51.19
2022-08-05T14:10:31.464Z,50.30
2022-08-05T14:12:58.928Z,50.17
2022-08-05T14:16:07.071Z,50.92
2022-08-05T14:18:18.111Z,51.32
2022-08-05T14:20:48.042Z,51.04
2022-08-05T14:23:23.964Z,50.74
2022-08-05T14:25:53.998Z,51.01
2022-08-05T14:28:26.444Z,51.28
2022-08-05T14:30:54.396Z,51.30
2022-08-05T14:33:22.626Z,50.78
2022-08-05T14:35:51.844Z,50.10
2022-08-05T14:38:33.365Z,50.52
2022-08-05T14:41:07.200Z,49.50
2022-08-05T14:43:59.587Z,49.48
2022-08-05T14:46:28.131Z,49.21
2022-08-05T14:48:55.777Z,50.19
2022-08-05T14:51:23.868Z,50.24
2022-08-05T14:54:06.609Z,49.39
2022-08-05T14:56:44.248Z,49.64
2022-08-05T14:59:13.231Z,49.80
2022-08-05T15:01:49.008Z,48.74
2022-08-05T15:04:20.735Z,49.52
2022-08-05T15:06:52.056Z,49.06
2022-08-05T15:09:52.624Z,49.06
2022-08-05T15:12:09.476Z,49.51
2022-08-05T15:14:49.370Z,49.00
2022-08-05T15:17:45.834Z,48.22
2022-08-05T15:20:18.492Z,48.96
2022-08-05T15:22:52.266Z,48.92
2022-08-05T15:25:23.521Z,48.57
2022-08-05T15:28:09.083Z,48.76
2022-08-05T15:30:43.369Z,48.77
2022-08-05T15:33:10.857Z,48.85
2022-08-05T15:35:45.115Z,48.46
2022-08-05T15:38:35.932Z,48.61
2022-08-05T15:41:22.059Z,47.70
2022-08-05T15:43:46.851Z,49.16
2022-08-05T15:46:13.700Z,48.79
2022-08-05T15:48:40.831Z,49.08
2022-08-05T15:52:13.642Z,48.85
2022-08-05T15:54:16.486Z,48.67
2022-08-05T15:56:43.674Z,48.94
2022-08-05T15:59:22.063Z,48.48
2022-08-05T16:01:52.648Z,48.41
2022-08-05T16:04:21.238Z,48.88
2022-08-05T16:06:52.934Z,48.92
2022-08-05T16:09:19.451Z,48.71
2022-08-05T16:11:52.824Z,48.73
2022-08-05T16:14:19.844Z,49.28
2022-08-05T16:16:47.362Z,49.20
2022-08-05T16:19:18.960Z,48.86
2022-08-05T16:22:03.466Z,48.94
2022-08-05T16:24:35.928Z,49.18
2022-08-05T16:27:09.212Z,49.14
2022-08-05T16:29:37.689Z,49.40
2022-08-05T16:32:06.458Z,48.95
2022-08-05T16:34:36.315Z,48.29
2022-08-05T16:37:02.860Z,48.20
2022-08-05T16:40:05.332Z,48.65
2022-08-05T16:42:34.937Z,48.69
2022-08-05T16:45:01.908Z,48.52
2022-08-05T16:47:40.882Z,48.84
2022-08-05T16:50:19.211Z,48.47
2022-08-05T16:52:46.078Z,49.88
2022-08-05T16:55:12.880Z,49.63
2022-08-05T16:57:53.472Z,48.72
2022-08-05T17:00:34.570Z,47.28
2022-08-05T17:03:15.191Z,48.14
2022-08-05T17:05:53.218Z,48.05
2022-08-05T17:08:35.919Z,47.19
2022-08-05T17:11:12.723Z,47.03
2022-08-05T17:13:43.892Z,47.32
2022-08-05T17:16:30.232Z,47.35
2022-08-05T17:18:57.095Z,46.41
2022-08-05T17:21:23.938Z,45.69
2022-08-05T17:24:05.510Z,46.29
2022-08-05T17:26:36.257Z,46.01
2022-08-05T17:29:07.426Z,46.13
2022-08-05T17:31:41.523Z,46.35
2022-08-05T17:34:30.123Z,46.83
2022-08-05T17:37:02.289Z,47.10
2022-08-05T17:39:34.140Z,46.69
2022-08-05T17:42:17.296Z,46.54
2022-08-05T17:44:50.375Z,46.69
2022-08-05T17:47:21.884Z,46.80
2022-08-05T17:50:00.429Z,47.03
2022-08-05T17:52:32.732Z,45.73
2022-08-05T17:55:00.529Z,46.33
2022-08-05T17:57:28.029Z,46.40
2022-08-05T18:00:03.266Z,46.23
2022-08-05T18:02:33.060Z,45.95
2022-08-05T18:05:03.155Z,46.15
2022-08-05T18:07:41.210Z,46.42
2022-08-05T18:10:11.276Z,46.16
2022-08-05T18:12:39.278Z,46.73
2022-08-05T18:15:06.774Z,46.05
2022-08-05T18:18:00.480Z,46.24
2022-08-05T18:20:29.175Z,46.15
2022-08-05T18:22:57.919Z,46.56
2022-08-05T18:25:33.080Z,47.10
2022-08-05T18:28:01.714Z,46.95
2022-08-05T18:30:33.052Z,47.30
2022-08-05T18:33:00.370Z,47.58
2022-08-05T18:35:50.038Z,47.46
2022-08-05T18:38:19.131Z,47.58
2022-08-05T18:41:55.402Z,47.54
2022-08-05T18:43:42.703Z,47.99
2022-08-05T18:46:10.193Z,48.40
2022-08-05T18:48:41.460Z,48.89
2022-08-05T18:52:04.501Z,49.77
2022-08-05T18:54:14.906Z,50.29
2022-08-05T18:56:41.775Z,50.06
2022-08-05T18:59:43.923Z,49.82
2022-08-05T19:02:04.718Z,49.69
2022-08-05T19:05:03.250Z,50.21
2022-08-05T19:07:24.875Z,50.26
2022-08-05T19:09:57.172Z,50.05
2022-08-05T19:12:25.511Z,49.71
2022-08-05T19:15:00.458Z,49.72
2022-08-05T19:18:08.587Z,50.38
2022-08-05T19:20:15.769Z,51.07
2022-08-05T19:22:44.174Z,51.53
2022-08-05T19:25:11.119Z,51.84
2022-08-05T19:27:56.154Z,52.53
2022-08-05T19:30:22.671Z,53.21
2022-08-05T19:32:50.390Z,53.65
2022-08-05T19:35:16.928Z,53.82
2022-08-05T19:38:06.450Z,54.05
2022-08-05T19:40:34.779Z,55.00
2022-08-05T19:43:05.738Z,55.20
2022-08-05T19:45:36.542Z,55.31
2022-08-05T19:48:05.274Z,55.49
2022-08-05T19:50:32.299Z,55.59
2022-08-05T19:53:09.307Z,55.73
2022-08-05T19:56:12.511Z,56.15
2022-08-05T19:58:29.222Z,56.02
2022-08-05T20:00:56.601Z,55.80
2022-08-05T20:03:25.357Z,56.14
2022-08-05T20:05:56.371Z,56.89
2022-08-05T20:08:24.380Z,57.04
2022-08-05T20:10:52.284Z,57.16
2022-08-05T20:13:29.782Z,57.53
2022-08-05T20:15:57.680Z,58.35
2022-08-05T20:18:33.699Z,58.64
2022-08-05T20:21:05.302Z,58.57
2022-08-05T20:23:39.378Z,58.57
2022-08-05T20:26:17.284Z,58.91
2022-08-05T20:28:50.460Z,58.94
2022-08-05T20:31:21.682Z,58.70
2022-08-05T20:33:50.188Z,58.96
2022-08-05T20:36:17.886Z,59.05
2022-08-05T20:38:53.453Z,59.78
2022-08-05T20:41:27.190Z,60.41
2022-08-05T20:44:18.758Z,60.90
2022-08-05T20:46:54.784Z,61.25
2022-08-05T20:49:24.346Z,61.34
2022-08-05T20:51:54.137Z,61.53
2022-08-05T20:54:22.115Z,61.69
2022-08-05T20:56:49.116Z,61.50
2022-08-05T20:59:19.175Z,61.43
2022-08-05T21:01:53.605Z,61.61
2022-08-05T21:04:20.191Z,61.77
2022-08-05T21:06:46.761Z,62.01
2022-08-05T21:09:15.072Z,62.73
2022-08-05T21:12:10.868Z,62.70
2022-08-05T21:14:31.473Z,62.52
2022-08-05T21:17:05.362Z,62.45
2022-08-05T21:19:46.648Z,62.36
2022-08-05T21:22:14.600Z,62.36
2022-08-05T21:24:41.132Z,62.50
2022-08-05T21:27:09.170Z,62.48
2022-08-05T21:29:40.659Z,62.50
2022-08-05T21:32:07.766Z,62.89
2022-08-05T21:34:35.651Z,63.49
2022-08-05T21:37:02.519Z,64.00
2022-08-05T21:39:29.528Z,64.25
2022-08-05T21:42:01.014Z,64.34
2022-08-05T21:44:28.411Z,64.04
2022-08-05T21:46:57.942Z,63.78
2022-08-05T21:49:48.108Z,64.18
2022-08-05T21:52:16.193Z,65.82
2022-08-05T21:54:48.615Z,64.52
2022-08-05T21:57:31.254Z,63.97
2022-08-05T22:00:07.081Z,64.01
2022-08-05T22:02:38.272Z,64.26
2022-08-05T22:05:05.949Z,64.31
2022-08-05T22:07:40.372Z,64.55
2022-08-05T22:10:27.080Z,65.73
2022-08-05T22:12:59.178Z,64.78
2022-08-05T22:16:01.060Z,64.87
2022-08-05T22:18:25.540Z,65.28
2022-08-05T22:20:52.827Z,65.47
2022-08-05T22:24:02.452Z,65.25
2022-08-05T22:26:43.132Z,65.53
2022-08-05T22:29:17.375Z,65.57
2022-08-05T22:31:45.333Z,65.64
2022-08-05T22:34:12.888Z,65.70
2022-08-05T22:36:52.280Z,66.02
2022-08-05T22:39:21.377Z,65.60
2022-08-05T22:42:09.518Z,65.30
2022-08-05T22:44:34.936Z,65.25
2022-08-05T22:47:05.848Z,65.49
2022-08-05T22:50:20.364Z,65.88
2022-08-05T22:52:30.665Z,65.88
2022-08-05T22:55:01.803Z,65.76
2022-08-05T22:57:36.263Z,65.89
2022-08-05T23:00:07.829Z,65.45
2022-08-05T23:02:40.075Z,65.45
2022-08-05T23:05:14.902Z,65.74
2022-08-05T23:07:48.325Z,65.99
2022-08-05T23:10:20.246Z,65.77
2022-08-05T23:12:54.933Z,66.03
2022-08-05T23:15:27.071Z,66.10
2022-08-05T23:18:00.923Z,66.45
2022-08-05T23:20:30.159Z,66.91
2022-08-05T23:22:58.597Z,66.90
2022-08-05T23:25:51.090Z,66.11
2022-08-05T23:28:12.748Z,66.89
2022-08-05T23:30:43.386Z,65.97
2022-08-05T23:33:26.299Z,66.25
2022-08-05T23:36:05.355Z,66.81
2022-08-05T23:38:31.885Z,66.43
2022-08-05T23:40:58.394Z,66.29
2022-08-05T23:44:04.614Z,66.45
2022-08-05T23:46:21.336Z,66.73
2022-08-05T23:49:00.236Z,65.98
2022-08-05T23:51:52.510Z,65.78
2022-08-05T23:54:25.869Z,66.21
2022-08-05T23:56:55.202Z,66.21
2022-08-05T23:59:23.127Z,66.88
